Time;durP1;ratioP1;P1;durP2;ratioP2;P2;SDS_P1;SDS_P2;PMS_P1;PMS_P2;Temp;Humidity;BMP_temperature;BMP_pressure;BME280_temperature;BME280_humidity;BME280_pressure;Samples;Min_cycle;Max_cycle;Signal;HPM_P1;HPM_P2
2024/01/17 00:02:03;;;;;;;;;;;;;;;-3.95;100.00;99507.41;5057088;28;19936;-81
2024/01/17 00:04:36;;;;;;;;;;;;;;;-4.03;100.00;99495.22;5043521;28;20809;-81
2024/01/17 00:07:05;;;;;;;;;;;;;;;-4.02;100.00;99496.84;5048567;28;20285;-81
2024/01/17 00:09:38;;;;;;;;;;;;;;;-4.10;100.00;99505.06;5058875;28;19920;-81
2024/01/17 00:12:12;;;;;;;;;;;;;;;-4.12;100.00;99496.47;5073602;28;20015;-81
2024/01/17 00:14:45;;;;;;;;;;;;;;;-4.11;100.00;99493.59;5062125;28;19924;-81
2024/01/17 00:17:14;;;;;;;;;;;;;;;-4.16;100.00;99496.06;5060720;28;19927;-81
2024/01/17 00:19:41;;;;;;;;;;;;;;;-4.12;100.00;99491.97;5046867;28;20364;-81
2024/01/17 00:22:16;;;;;;;;;;;;;;;-4.17;100.00;99480.34;5048000;28;19925;-81
2024/01/17 00:24:51;;;;;;;;;;;;;;;-4.18;100.00;99476.09;5064265;28;20790;-81
2024/01/17 00:27:23;;;;;;;;;;;;;;;-4.32;100.00;99468.19;5056315;28;19998;-81
2024/01/17 00:29:58;;;;;;;;;;;;;;;-4.35;100.00;99457.97;5053514;28;19927;-81
2024/01/17 00:32:26;;;;;;;;;;;;;;;-4.34;100.00;99462.25;5057033;28;20269;-81
2024/01/17 00:34:59;;;;;;;;;;;;;;;-4.37;100.00;99462.69;5049127;28;19920;-81
2024/01/17 00:37:32;;;;;;;;;;;;;;;-4.29;100.00;99456.31;5063007;28;19935;-81
2024/01/17 00:40:05;;;;;;;;;;;;;;;-4.27;100.00;99460.38;5051905;28;19924;-81
2024/01/17 00:42:40;;;;;;;;;;;;;;;-4.33;100.00;99461.22;5054249;28;20285;-81
2024/01/17 00:45:09;;;;;;;;;;;;;;;-4.24;100.00;99453.00;5064757;28;19935;-81
2024/01/17 00:47:37;;;;;;;;;;;;;;;-4.27;100.00;99455.06;5065346;28;19928;-81
2024/01/17 00:50:10;;;;;;;;;;;;;;;-4.29;100.00;99438.53;5049530;28;19932;-81
2024/01/17 00:52:38;;;;;;;;;;;;;;;-4.38;100.00;99444.28;5059354;28;19920;-81
2024/01/17 00:55:06;;;;;;;;;;;;;;;-4.33;100.00;99442.63;5046779;28;19921;-81
2024/01/17 00:57:34;;;;;;;;;;;;;;;-4.36;100.00;99436.94;5048867;28;19921;-81
2024/01/17 01:00:04;;;;;;;;;;;;;;;-4.32;100.00;99440.81;5062301;28;19921;-81
2024/01/17 01:02:32;;;;;;;;;;;;;;;-4.31;100.00;99439.75;5060690;28;19920;-81
2024/01/17 01:05:00;;;;;;;;;;;;;;;-4.35;100.00;99436.72;5066945;28;19931;-81
2024/01/17 01:07:28;;;;;;;;;;;;;;;-4.42;100.00;99443.91;5050645;28;20302;-81
2024/01/17 01:09:56;;;;;;;;;;;;;;;-4.41;100.00;99428.78;5074454;28;19921;-81
2024/01/17 01:12:24;;;;;;;;;;;;;;;-4.50;100.00;99429.03;5051736;28;20741;-81
2024/01/17 01:14:57;;;;;;;;;;;;;;;-4.46;100.00;99426.75;5058491;28;19928;-81
2024/01/17 01:17:31;;;;;;;;;;;;;;;-4.50;100.00;99417.59;5063140;28;19927;-81
2024/01/17 01:19:59;;;;;;;;;;;;;;;-4.52;100.00;99415.16;5046792;28;19920;-81
2024/01/17 01:22:32;;;;;;;;;;;;;;;-4.51;100.00;99413.31;5074976;28;19935;-81
2024/01/17 01:25:00;;;;;;;;;;;;;;;-4.55;100.00;99410.25;5063373;28;19924;-81
2024/01/17 01:27:28;;;;;;;;;;;;;;;-4.50;100.00;99417.59;5053804;28;20289;-81
2024/01/17 01:30:01;;;;;;;;;;;;;;;-4.64;100.00;99417.66;5054468;28;19931;-81
2024/01/17 01:32:29;;;;;;;;;;;;;;;-4.58;100.00;99417.81;5052721;28;19921;-81
2024/01/17 01:35:04;;;;;;;;;;;;;;;-4.62;100.00;99412.16;5056545;28;19920;-81
2024/01/17 01:37:32;;;;;;;;;;;;;;;-4.58;100.00;99413.34;5055455;28;19928;-81
2024/01/17 01:40:07;;;;;;;;;;;;;;;-4.54;100.00;99401.28;5050923;28;19932;-81
2024/01/17 01:42:35;;;;;;;;;;;;;;;-4.53;100.00;99392.28;5064256;28;19925;-81
2024/01/17 01:45:08;;;;;;;;;;;;;;;-4.55;100.00;99385.56;5057257;28;19931;-81
2024/01/17 01:47:42;;;;;;;;;;;;;;;-4.54;100.00;99384.50;5046013;28;19928;-81
2024/01/17 01:50:12;;;;;;;;;;;;;;;-4.56;100.00;99384.72;5067425;28;19928;-81
2024/01/17 01:52:43;;;;;;;;;;;;;;;-4.47;100.00;99383.47;5045135;28;19921;-81
2024/01/17 01:55:16;;;;;;;;;;;;;;;-4.52;100.00;99382.47;5053062;28;19920;-81
2024/01/17 01:57:50;;;;;;;;;;;;;;;-4.48;100.00;99391.66;5065369;28;19921;-81
2024/01/17 02:00:24;;;;;;;;;;;;;;;-4.42;100.00;99387.31;5052510;28;19924;-81
2024/01/17 02:02:57;;;;;;;;;;;;;;;-4.36;100.00;99379.31;5056827;28;19995;-81
2024/01/17 02:05:31;;;;;;;;;;;;;;;-4.32;100.00;99377.88;5055085;28;19927;-81
2024/01/17 02:08:04;;;;;;;;;;;;;;;-4.21;100.00;99384.34;5053876;28;20774;-81
2024/01/17 02:10:33;;;;;;;;;;;;;;;-4.16;100.00;99379.16;5049489;28;20308;-81
2024/01/17 02:13:02;;;;;;;;;;;;;;;-4.12;100.00;99372.41;5065238;28;20384;-81
2024/01/17 02:15:29;;;;;;;;;;;;;;;-4.12;100.00;99368.94;5052630;28;19920;-81
2024/01/17 02:18:03;;;;;;;;;;;;;;;-4.01;100.00;99367.44;5065726;28;19921;-81
2024/01/17 02:20:32;;;;;;;;;;;;;;;-3.97;100.00;99361.47;5050658;28;19933;-81
2024/01/17 02:23:20;;;;;;;;;;;;;;;-3.92;100.00;99347.53;5056673;28;19929;-81
2024/01/17 02:25:55;;;;;;;;;;;;;;;-3.93;100.00;99344.03;5068082;28;19921;-81
2024/01/17 02:28:24;;;;;;;;;;;;;;;-3.86;100.00;99354.63;5055542;28;19943;-81
2024/01/17 02:30:57;;;;;;;;;;;;;;;-3.85;100.00;99348.28;5073129;28;19920;-81
2024/01/17 02:33:25;;;;;;;;;;;;;;;-3.84;100.00;99339.28;5048040;28;19931;-81
2024/01/17 02:35:58;;;;;;;;;;;;;;;-3.84;100.00;99339.28;5071778;28;20281;-81
2024/01/17 02:38:26;;;;;;;;;;;;;;;-3.79;100.00;99346.59;5045355;28;19920;-82
2024/01/17 02:40:55;;;;;;;;;;;;;;;-3.75;100.00;99334.50;5045816;28;19924;-81
2024/01/17 02:43:26;;;;;;;;;;;;;;;-3.71;100.00;99337.53;5062962;28;20257;-81
2024/01/17 02:45:54;;;;;;;;;;;;;;;-3.78;100.00;99340.25;5047141;28;19928;-81
2024/01/17 02:48:22;;;;;;;;;;;;;;;-3.69;100.00;99319.50;5057823;28;19920;-81
2024/01/17 02:50:50;;;;;;;;;;;;;;;-3.73;100.00;99324.44;5059162;28;19928;-81
2024/01/17 02:53:23;;;;;;;;;;;;;;;-3.74;100.00;99312.19;5062073;28;19921;-81
2024/01/17 02:55:57;;;;;;;;;;;;;;;-3.74;100.00;99308.72;5063145;28;19936;-81
2024/01/17 02:58:30;;;;;;;;;;;;;;;-3.66;100.00;99313.75;5057963;28;19925;-81
2024/01/17 03:00:58;;;;;;;;;;;;;;;-3.69;100.00;99307.00;5060258;28;19928;-81
2024/01/17 03:03:31;;;;;;;;;;;;;;;-3.66;100.00;99297.78;5049468;28;20653;-81
2024/01/17 03:06:05;;;;;;;;;;;;;;;-3.68;100.00;99286.56;5060165;28;19920;-81
2024/01/17 03:08:32;;;;;;;;;;;;;;;-3.72;100.00;99288.84;5048599;28;19928;-81
2024/01/17 03:11:07;;;;;;;;;;;;;;;-3.80;100.00;99286.47;5062949;28;19924;-81
2024/01/17 03:13:40;;;;;;;;;;;;;;;-3.87;100.00;99285.75;5062299;28;19928;-81
2024/01/17 03:16:08;;;;;;;;;;;;;;;-3.94;100.00;99269.84;5059716;28;19928;-81
2024/01/17 03:18:37;;;;;;;;;;;;;;;-4.02;100.00;99273.63;5061029;28;19925;-81
2024/01/17 03:21:10;;;;;;;;;;;;;;;-4.03;100.00;99266.69;5063155;28;19928;-81
2024/01/17 03:23:38;;;;;;;;;;;;;;;-4.13;100.00;99267.19;5041520;28;19921;-81
2024/01/17 03:26:12;;;;;;;;;;;;;;;-4.09;100.00;99254.25;5057665;28;19920;-81
2024/01/17 03:28:45;;;;;;;;;;;;;;;-4.22;100.00;99247.22;5042142;28;19929;-81
2024/01/17 03:31:13;;;;;;;;;;;;;;;-4.26;100.00;99251.34;5065711;28;19931;-81
2024/01/17 03:33:46;;;;;;;;;;;;;;;-4.22;100.00;99247.22;5062948;28;19925;-81
2024/01/17 03:36:14;;;;;;;;;;;;;;;-4.21;100.00;99242.72;5053358;28;20356;-81
2024/01/17 03:38:47;;;;;;;;;;;;;;;-4.31;100.00;99238.72;5061692;28;19931;-81
2024/01/17 03:41:16;;;;;;;;;;;;;;;-4.29;100.00;99233.19;5042492;28;19928;-81
2024/01/17 03:43:51;;;;;;;;;;;;;;;-4.29;100.00;99235.84;5075574;28;22242;-81
2024/01/17 03:46:19;;;;;;;;;;;;;;;-4.29;100.00;99241.16;5050869;28;19925;-81
2024/01/17 03:48:52;;;;;;;;;;;;;;;-4.23;100.00;99227.00;5049608;28;19920;-81
2024/01/17 03:51:20;;;;;;;;;;;;;;;-4.15;100.00;99225.91;5063359;28;21571;-81
2024/01/17 03:53:53;;;;;;;;;;;;;;;-4.17;100.00;99212.03;5048979;28;19931;-81
2024/01/17 03:56:27;;;;;;;;;;;;;;;-4.17;100.00;99209.34;5053189;28;19925;-81
2024/01/17 03:58:55;;;;;;;;;;;;;;;-4.19;100.00;99216.75;5060968;28;19920;-81
2024/01/17 04:01:23;;;;;;;;;;;;;;;-4.20;100.00;99212.47;5057938;28;19939;-81
2024/01/17 04:03:56;;;;;;;;;;;;;;;-4.24;100.00;99205.97;5060754;28;22580;-81
2024/01/17 04:06:25;;;;;;;;;;;;;;;-4.21;100.00;99203.69;5052423;28;19928;-81
2024/01/17 04:08:53;;;;;;;;;;;;;;;-4.20;100.00;99189.34;5051001;28;19920;-81
2024/01/17 04:11:21;;;;;;;;;;;;;;;-4.21;100.00;99186.91;5068564;28;19924;-81
2024/01/17 04:13:50;;;;;;;;;;;;;;;-4.13;100.00;99181.31;5059647;28;19921;-81
2024/01/17 04:16:18;;;;;;;;;;;;;;;-4.10;100.00;99172.94;5063317;28;20823;-81
2024/01/17 04:18:46;;;;;;;;;;;;;;;-4.13;100.00;99176.84;5052578;28;19924;-81
2024/01/17 04:21:20;;;;;;;;;;;;;;;-4.09;100.00;99166.56;5064963;28;20392;-81
2024/01/17 04:23:49;;;;;;;;;;;;;;;-4.06;100.00;99163.50;5051157;28;19924;-81
2024/01/17 04:26:23;;;;;;;;;;;;;;;-4.06;100.00;99163.50;5048309;28;19929;-81
2024/01/17 04:28:52;;;;;;;;;;;;;;;-4.02;100.00;99153.22;5049941;28;19928;-81
2024/01/17 04:31:26;;;;;;;;;;;;;;;-4.11;100.00;99140.22;5065933;28;21745;-81
2024/01/17 04:34:01;;;;;;;;;;;;;;;-4.15;100.00;99132.94;5050853;28;19920;-81
2024/01/17 04:36:29;;;;;;;;;;;;;;;-4.23;100.00;99127.91;5043822;28;19928;-81
2024/01/17 04:38:58;;;;;;;;;;;;;;;-4.20;100.00;99130.13;5074252;28;19920;-81
2024/01/17 04:41:31;;;;;;;;;;;;;;;-4.16;100.00;99115.34;5045009;28;19921;-81
2024/01/17 04:44:00;;;;;;;;;;;;;;;-4.19;100.00;99121.91;5075906;28;19920;-81
2024/01/17 04:46:28;;;;;;;;;;;;;;;-4.19;100.00;99108.63;5059321;28;19924;-81
2024/01/17 04:49:01;;;;;;;;;;;;;;;-4.18;100.00;99096.19;5068969;28;19924;-81
2024/01/17 04:51:34;;;;;;;;;;;;;;;-4.15;100.00;99106.34;5074458;28;19921;-81
2024/01/17 04:54:02;;;;;;;;;;;;;;;-4.12;100.00;99101.41;5052277;28;19924;-81
2024/01/17 04:56:30;;;;;;;;;;;;;;;-4.04;100.00;99086.22;5078392;28;19924;-81
2024/01/17 04:59:04;;;;;;;;;;;;;;;-4.02;100.00;99076.16;5077217;28;19920;-81
2024/01/17 05:01:32;;;;;;;;;;;;;;;-4.05;100.00;99065.97;5050099;28;19920;-81
2024/01/17 05:04:05;;;;;;;;;;;;;;;-4.04;100.00;99080.91;5047735;28;19921;-81
2024/01/17 05:06:34;;;;;;;;;;;;;;;-4.06;100.00;99077.63;5050858;28;19921;-81
2024/01/17 05:09:10;;;;;;;;;;;;;;;-4.08;100.00;99075.19;5047549;28;19925;-81
2024/01/17 05:11:42;;;;;;;;;;;;;;;-4.04;100.00;99079.03;5065353;28;19943;-81
2024/01/17 05:14:13;;;;;;;;;;;;;;;-4.08;100.00;99079.72;5060476;28;19927;-81
2024/01/17 05:16:41;;;;;;;;;;;;;;;-4.10;100.00;99062.16;5052409;28;19921;-81
2024/01/17 05:19:16;;;;;;;;;;;;;;;-4.06;100.00;99053.72;5062557;28;19924;-81
2024/01/17 05:21:43;;;;;;;;;;;;;;;-4.05;100.00;99053.50;5048410;28;19936;-81
2024/01/17 05:24:11;;;;;;;;;;;;;;;-4.10;100.00;99048.88;5048826;28;19920;-81
2024/01/17 05:26:46;;;;;;;;;;;;;;;-4.08;100.00;99053.16;5063419;28;19927;-81
2024/01/17 05:29:15;;;;;;;;;;;;;;;-4.10;100.00;99043.53;5056512;28;19932;-81
2024/01/17 05:31:43;;;;;;;;;;;;;;;-4.09;100.00;99049.66;5043018;28;19921;-81
2024/01/17 05:34:11;;;;;;;;;;;;;;;-4.15;100.00;99046.06;5067583;28;19936;-81
2024/01/17 05:36:43;;;;;;;;;;;;;;;-4.12;100.00;99044.81;5050401;28;19924;-81
2024/01/17 05:39:12;;;;;;;;;;;;;;;-4.09;100.00;99039.03;5049188;28;20395;-81
2024/01/17 05:41:40;;;;;;;;;;;;;;;-4.18;100.00;99024.47;5058016;28;19928;-81
2024/01/17 05:44:08;;;;;;;;;;;;;;;-4.14;100.00;99028.28;5061930;28;20309;-81
2024/01/17 05:46:42;;;;;;;;;;;;;;;-4.15;100.00;99014.19;5047870;28;20296;-81
2024/01/17 05:49:15;;;;;;;;;;;;;;;-4.14;100.00;99001.72;5046386;28;19928;-81
2024/01/17 05:51:48;;;;;;;;;;;;;;;-4.17;100.00;98992.34;5061178;28;19926;-81
2024/01/17 05:54:16;;;;;;;;;;;;;;;-4.12;100.00;98983.69;5048442;28;19928;-81
2024/01/17 05:56:44;;;;;;;;;;;;;;;-4.10;100.00;98976.31;5063899;28;20293;-81
2024/01/17 05:59:13;;;;;;;;;;;;;;;-4.11;100.00;98975.50;5053853;28;19931;-81
2024/01/17 06:01:47;;;;;;;;;;;;;;;-4.09;100.00;98967.28;5058548;28;19928;-81
2024/01/17 06:04:15;;;;;;;;;;;;;;;-4.08;100.00;98968.13;5067685;28;19920;-80
2024/01/17 06:06:48;;;;;;;;;;;;;;;-4.08;100.00;98960.97;5055027;28;19934;-81
2024/01/17 06:09:21;;;;;;;;;;;;;;;-4.07;100.00;98973.22;5065691;28;19935;-81
2024/01/17 06:11:55;;;;;;;;;;;;;;;-4.12;100.00;98957.94;5069154;28;19920;-81
2024/01/17 06:14:28;;;;;;;;;;;;;;;-4.07;100.00;98964.41;5072373;28;19927;-81
2024/01/17 06:16:57;;;;;;;;;;;;;;;-4.04;100.00;98953.34;5048106;28;19924;-81
2024/01/17 06:19:30;;;;;;;;;;;;;;;-4.02;100.00;98953.94;5052688;28;19924;-80
2024/01/17 06:22:03;;;;;;;;;;;;;;;-4.03;100.00;98950.47;5055233;28;19921;-81
2024/01/17 06:24:31;;;;;;;;;;;;;;;-3.99;100.00;98938.34;5069681;28;19920;-81
2024/01/17 06:26:59;;;;;;;;;;;;;;;-4.01;100.00;98940.41;5055278;28;19920;-81
2024/01/17 06:29:29;;;;;;;;;;;;;;;-4.01;100.00;98944.91;5054051;28;19928;-81
2024/01/17 06:32:04;;;;;;;;;;;;;;;-4.00;100.00;98938.56;5065300;28;19928;-80
2024/01/17 06:34:37;;;;;;;;;;;;;;;-4.05;100.00;98930.47;5058339;28;20374;-81
2024/01/17 06:37:05;;;;;;;;;;;;;;;-3.99;100.00;98924.22;5066298;28;19951;-81
2024/01/17 06:39:38;;;;;;;;;;;;;;;-3.99;100.00;98911.78;5045008;28;19924;-81
2024/01/17 06:42:06;;;;;;;;;;;;;;;-4.06;100.00;98919.03;5046282;28;20285;-80
2024/01/17 06:44:38;;;;;;;;;;;;;;;-4.05;100.00;98912.66;5064404;28;19921;-81
2024/01/17 06:47:13;;;;;;;;;;;;;;;-4.05;100.00;98915.31;5077523;28;19939;-81
2024/01/17 06:49:46;;;;;;;;;;;;;;;-4.05;100.00;98911.88;5042654;28;19920;-81
2024/01/17 06:52:14;;;;;;;;;;;;;;;-4.02;100.00;98908.75;5047122;28;20523;-81
2024/01/17 06:54:42;;;;;;;;;;;;;;;-4.05;100.00;98920.66;5074027;28;19928;-80
2024/01/17 06:57:15;;;;;;;;;;;;;;;-4.03;100.00;98901.81;5063298;28;19920;-81
2024/01/17 06:59:48;;;;;;;;;;;;;;;-4.06;100.00;98907.59;5059463;28;19927;-80
2024/01/17 07:02:18;;;;;;;;;;;;;;;-4.10;100.00;98907.25;5061341;28;19920;-81
2024/01/17 07:04:46;;;;;;;;;;;;;;;-4.06;100.00;98916.38;5046477;28;19928;-81
2024/01/17 07:07:13;;;;;;;;;;;;;;;-4.01;100.00;98913.84;5072191;28;19932;-81
2024/01/17 07:09:42;;;;;;;;;;;;;;;-4.00;100.00;98901.38;5049156;28;20284;-81
2024/01/17 07:12:15;;;;;;;;;;;;;;;-4.06;100.00;98908.41;5049113;28;20680;-80
2024/01/17 07:14:44;;;;;;;;;;;;;;;-4.12;100.00;98899.47;5051351;28;19920;-81
2024/01/17 07:17:18;;;;;;;;;;;;;;;-4.13;100.00;98897.06;5047348;28;19925;-80
2024/01/17 07:19:46;;;;;;;;;;;;;;;-4.14;100.00;98895.47;5047891;28;20007;-80
2024/01/17 07:22:19;;;;;;;;;;;;;;;-4.11;100.00;98897.66;5060737;28;19920;-81
2024/01/17 07:24:47;;;;;;;;;;;;;;;-4.15;100.00;98881.34;5051652;28;19921;-81
2024/01/17 07:27:20;;;;;;;;;;;;;;;-4.16;100.00;98879.72;5044168;28;19920;-81
2024/01/17 07:29:48;;;;;;;;;;;;;;;-4.16;100.00;98881.56;5050104;28;19936;-81
2024/01/17 07:32:17;;;;;;;;;;;;;;;-4.19;100.00;98876.72;5052592;28;19932;-80
2024/01/17 07:34:45;;;;;;;;;;;;;;;-4.20;100.00;98883.88;5044382;28;19948;-80
2024/01/17 07:37:13;;;;;;;;;;;;;;;-4.22;100.00;98878.00;5066576;28;19927;-78
2024/01/17 07:39:46;;;;;;;;;;;;;;;-4.27;100.00;98873.38;5051467;28;20292;-80
2024/01/17 07:42:18;;;;;;;;;;;;;;;-4.25;100.00;98869.66;5042680;28;19932;-80
2024/01/17 07:44:46;;;;;;;;;;;;;;;-4.23;100.00;98867.59;5076997;28;19947;-80
2024/01/17 07:47:14;;;;;;;;;;;;;;;-4.27;100.00;98860.09;5049552;28;19924;-79
2024/01/17 07:49:48;;;;;;;;;;;;;;;-4.22;100.00;98859.41;5059892;28;20543;-79
2024/01/17 07:52:21;;;;;;;;;;;;;;;-4.21;100.00;98850.41;5067425;28;20324;-78
2024/01/17 07:54:54;;;;;;;;;;;;;;;-4.15;100.00;98846.00;5045534;28;19925;-79
2024/01/17 07:57:27;;;;;;;;;;;;;;;-4.18;100.00;98841.16;5072245;28;19920;-80
2024/01/17 08:00:00;;;;;;;;;;;;;;;-4.20;100.00;98830.75;5060302;28;19924;-80
2024/01/17 08:02:28;;;;;;;;;;;;;;;-4.19;100.00;98832.38;5044823;28;19920;-79
2024/01/17 08:04:57;;;;;;;;;;;;;;;-4.23;100.00;98841.03;5064203;28;19931;-79
2024/01/17 08:07:25;;;;;;;;;;;;;;;-4.20;100.00;98843.22;5045764;28;19931;-79
2024/01/17 08:09:58;;;;;;;;;;;;;;;-4.18;100.00;98830.53;5060331;28;19925;-79
2024/01/17 08:12:31;;;;;;;;;;;;;;;-4.20;100.00;98822.78;5025019;28;19951;-80
2024/01/17 08:15:04;;;;;;;;;;;;;;;-4.23;100.00;98809.97;5007628;28;19928;-79
2024/01/17 08:17:37;;;;;;;;;;;;;;;-4.22;100.00;98806.28;5016001;28;20373;-80
2024/01/17 08:20:16;;;;;;;;;;;;;;;-4.15;100.00;98804.31;5044499;28;19924;-79
2024/01/17 08:22:52;;;;;;;;;;;;;;;-4.16;100.00;98805.34;5024148;28;20271;-78
2024/01/17 08:25:25;;;;;;;;;;;;;;;-4.12;100.00;98800.38;5009938;28;20451;-79
2024/01/17 08:27:59;;;;;;;;;;;;;;;-4.13;100.00;98799.59;5029374;28;20597;-81
2024/01/17 08:30:27;;;;;;;;;;;;;;;-4.07;100.00;98797.03;5003068;28;20377;-79
2024/01/17 08:33:00;;;;;;;;;;;;;;;-4.08;100.00;98796.22;5032848;28;21406;-78
2024/01/17 08:35:29;;;;;;;;;;;;;;;-4.04;100.00;98796.59;5026379;28;19928;-78
2024/01/17 08:38:00;;;;;;;;;;;;;;;-4.05;100.00;98784.34;5033496;28;19935;-79
2024/01/17 08:40:28;;;;;;;;;;;;;;;-3.98;100.00;98780.53;5033960;28;20831;-77
2024/01/17 08:42:56;;;;;;;;;;;;;;;-3.96;100.00;98773.13;5033882;28;19929;-80
2024/01/17 08:45:24;;;;;;;;;;;;;;;-3.99;100.00;98772.78;5038380;28;19929;-79
2024/01/17 08:47:57;;;;;;;;;;;;;;;-3.99;100.00;98765.63;5036097;28;19959;-80
2024/01/17 08:50:25;;;;;;;;;;;;;;;-3.93;100.00;98764.69;5043877;28;19929;-80
2024/01/17 08:52:55;;;;;;;;;;;;;;;-3.90;100.00;98771.41;5021068;28;20705;-80
2024/01/17 08:55:23;;;;;;;;;;;;;;;-3.96;100.00;98765.16;5039145;28;19928;-80
2024/01/17 08:57:56;;;;;;;;;;;;;;;-3.87;100.00;98770.91;5041678;28;19952;-79
2024/01/17 09:00:29;;;;;;;;;;;;;;;-3.81;100.00;98766.53;5043800;28;19943;-80
2024/01/17 09:03:02;;;;;;;;;;;;;;;-3.80;100.00;98773.47;5043977;28;20508;-80
2024/01/17 09:05:29;;;;;;;;;;;;;;;-3.79;100.00;98767.13;5019598;28;19970;-80
2024/01/17 09:08:04;;;;;;;;;;;;;;;-3.82;100.00;98755.09;5040456;28;19929;-79
2024/01/17 09:10:32;;;;;;;;;;;;;;;-3.75;100.00;98757.63;5016395;28;21018;-79
2024/01/17 09:13:00;;;;;;;;;;;;;;;-3.70;100.00;98749.78;5004595;28;20261;-80
2024/01/17 09:15:33;;;;;;;;;;;;;;;-3.66;100.00;98753.59;5015540;28;19928;-80
2024/01/17 09:18:01;;;;;;;;;;;;;;;-3.57;100.00;98748.69;5053592;28;21193;-80
2024/01/17 09:20:35;;;;;;;;;;;;;;;-3.52;100.00;98742.66;5039762;28;19928;-79
2024/01/17 09:23:04;;;;;;;;;;;;;;;-3.49;100.00;98753.66;5021311;28;19963;-80
2024/01/17 09:25:32;;;;;;;;;;;;;;;-3.54;100.00;98742.09;5040310;28;19929;-80
2024/01/17 09:28:06;;;;;;;;;;;;;;;-3.45;100.00;98746.81;5040388;28;19928;-80
2024/01/17 09:30:33;;;;;;;;;;;;;;;-3.48;100.00;98739.31;5048415;28;19943;-80
2024/01/17 09:33:02;;;;;;;;;;;;;;;-3.42;100.00;98745.53;5062960;28;19932;-78
2024/01/17 09:35:36;;;;;;;;;;;;;;;-3.40;100.00;98748.75;5021658;28;19940;-79
2024/01/17 09:38:06;;;;;;;;;;;;;;;-3.40;100.00;98751.41;5014904;28;19935;-79
2024/01/17 09:40:34;;;;;;;;;;;;;;;-3.34;100.00;98744.34;5023883;28;19928;-79
2024/01/17 09:43:08;;;;;;;;;;;;;;;-3.34;100.00;98739.84;5020417;28;19929;-79
2024/01/17 09:45:36;;;;;;;;;;;;;;;-3.28;100.00;98738.91;5015493;28;20742;-80
2024/01/17 09:48:05;;;;;;;;;;;;;;;-3.29;100.00;98729.28;5050876;28;19928;-80
2024/01/17 09:50:38;;;;;;;;;;;;;;;-3.17;100.00;98733.78;5027882;28;19935;-80
2024/01/17 09:53:11;;;;;;;;;;;;;;;-3.17;100.00;98737.25;5023351;28;19929;-80
2024/01/17 09:55:45;;;;;;;;;;;;;;;-3.10;100.00;98721.94;5020694;28;19936;-79
2024/01/17 09:58:19;;;;;;;;;;;;;;;-2.97;100.00;98730.66;5042023;28;20665;-79
2024/01/17 10:00:53;;;;;;;;;;;;;;;-3.04;100.00;98727.34;5022876;28;20110;-80
2024/01/17 10:03:28;;;;;;;;;;;;;;;-2.93;100.00;98727.31;5022500;28;19934;-79
2024/01/17 10:06:01;;;;;;;;;;;;;;;-2.94;100.00;98722.19;5037881;28;19929;-80
2024/01/17 10:08:39;;;;;;;;;;;;;;;-2.93;100.00;98724.66;5032796;28;19928;-80
2024/01/17 10:11:07;;;;;;;;;;;;;;;-2.96;100.00;98719.00;5044153;28;19924;-80
2024/01/17 10:13:34;;;;;;;;;;;;;;;-2.87;100.00;98708.75;4995287;28;19935;-80
2024/01/17 10:16:08;;;;;;;;;;;;;;;-2.93;100.00;98711.34;5017430;28;19928;-80
2024/01/17 10:18:43;;;;;;;;;;;;;;;-2.82;100.00;98714.97;5042458;28;19932;-80
2024/01/17 10:21:11;;;;;;;;;;;;;;;-2.80;100.00;98712.09;5051866;28;19928;-80
2024/01/17 10:24:01;;;;;;;;;;;;;;;-2.66;100.00;98707.25;5041109;28;19935;-80
2024/01/17 10:27:16;;;;;;;;;;;;;;;-2.72;100.00;98702.88;4956324;28;19960;-80
2024/01/17 10:29:46;;;;;;;;;;;;;;;-2.73;100.00;98704.75;4966034;28;19925;-80
2024/01/17 10:32:14;;;;;;;;;;;;;;;-2.62;100.00;98701.19;4961488;28;19924;-80
2024/01/17 10:34:47;;;;;;;;;;;;;;;-2.64;100.00;98702.47;5008018;28;20516;-81
2024/01/17 10:37:19;;;;;;;;;;;;;;;-2.66;100.00;98697.41;5018036;28;19928;-81
2024/01/17 10:40:06;;;;;;;;;;;;;;;-2.58;100.00;98689.00;5052875;28;20289;-79
2024/01/17 10:42:40;;;;;;;;;;;;;;;-2.49;100.00;98686.72;5016041;28;21515;-80
2024/01/17 10:45:21;;;;;;;;;;;;;;;-2.54;100.00;98677.84;5007356;28;20966;-80
2024/01/17 10:47:49;;;;;;;;;;;;;;;-2.48;100.00;98677.69;5017892;28;19948;-81
2024/01/17 10:50:17;;;;;;;;;;;;;;;-2.51;100.00;98667.53;5025776;28;19928;-81
2024/01/17 10:52:52;;;;;;;;;;;;;;;-2.48;100.00;98661.72;5038629;28;19935;-81
2024/01/17 10:55:22;;;;;;;;;;;;;;;-2.49;100.00;98653.97;5045146;28;20297;-81
2024/01/17 10:57:51;;;;;;;;;;;;;;;-2.56;100.00;98651.47;5020987;28;19962;-80
2024/01/17 11:00:32;;;;;;;;;;;;;;;-2.50;100.00;98661.16;5040157;28;19936;-81
2024/01/17 11:09:31;;;;;;;;;;;;;;;-2.37;100.00;98630.72;5019929;28;19929;-81
2024/01/17 11:12:05;;;;;;;;;;;;;;;-2.30;100.00;98631.34;5028735;28;20408;-81
2024/01/17 11:14:40;;;;;;;;;;;;;;;-2.42;100.00;98626.13;5022920;28;19928;-81
2024/01/17 11:17:16;;;;;;;;;;;;;;;-2.34;100.00;98624.09;5044692;28;20459;-81
2024/01/17 11:19:45;;;;;;;;;;;;;;;-2.43;100.00;98621.84;5015856;28;20517;-81
2024/01/17 11:22:18;;;;;;;;;;;;;;;-2.34;100.00;98610.75;5044568;28;19932;-81
2024/01/17 11:24:55;;;;;;;;;;;;;;;-2.32;100.00;98616.63;5030732;28;21193;-81
2024/01/17 11:27:27;;;;;;;;;;;;;;;-2.26;100.00;98616.47;5044780;28;20308;-80
2024/01/17 11:30:02;;;;;;;;;;;;;;;-2.19;100.00;98608.28;5007999;28;19935;-81
2024/01/17 11:32:46;;;;;;;;;;;;;;;-2.29;100.00;98602.81;5019553;28;19920;-80
2024/01/17 11:35:28;;;;;;;;;;;;;;;-2.16;100.00;98607.00;5049101;28;19928;-81
2024/01/17 11:37:56;;;;;;;;;;;;;;;-2.24;100.00;98594.91;5021545;28;19920;-81
2024/01/17 11:40:24;;;;;;;;;;;;;;;-2.12;100.00;98592.91;5027836;28;19963;-80
2024/01/17 11:42:52;;;;;;;;;;;;;;;-2.13;100.00;98587.84;5049353;28;19935;-81
2024/01/17 11:45:25;;;;;;;;;;;;;;;-2.17;100.00;98579.53;5023443;28;19928;-81
2024/01/17 11:48:11;;;;;;;;;;;;;;;-2.14;100.00;98571.06;5021071;28;19936;-81
2024/01/17 11:50:54;;;;;;;;;;;;;;;-2.10;100.00;98564.19;5019711;28;19934;-80
2024/01/17 11:53:28;;;;;;;;;;;;;;;-2.00;100.00;98565.31;5022493;28;19928;-81
2024/01/17 11:56:01;;;;;;;;;;;;;;;-1.96;100.00;98563.78;5042993;28;19928;-81
2024/01/17 11:58:38;;;;;;;;;;;;;;;-1.93;100.00;98552.63;5022226;28;19921;-80
2024/01/17 12:01:13;;;;;;;;;;;;;;;-1.97;100.00;98549.66;5020602;28;20582;-80
2024/01/17 12:03:42;;;;;;;;;;;;;;;-1.88;100.00;98540.16;5038125;28;19928;-80
2024/01/17 12:06:16;;;;;;;;;;;;;;;-1.87;100.00;98524.97;5032801;28;20759;-79
2024/01/17 12:08:49;;;;;;;;;;;;;;;-1.88;100.00;98532.16;5015732;28;20006;-80
2024/01/17 12:11:23;;;;;;;;;;;;;;;-1.87;100.00;98538.28;5040341;28;19929;-81
2024/01/17 12:13:52;;;;;;;;;;;;;;;-1.71;100.00;98536.59;5006048;28;19936;-81
2024/01/17 12:16:22;;;;;;;;;;;;;;;-1.79;100.00;98527.19;5021505;28;20539;-80
2024/01/17 12:18:58;;;;;;;;;;;;;;;-1.69;100.00;98521.13;5021271;28;19929;-80
2024/01/17 12:21:26;;;;;;;;;;;;;;;-1.54;100.00;98512.47;5049571;28;19935;-81
2024/01/17 12:23:54;;;;;;;;;;;;;;;-1.56;100.00;98510.06;5029198;28;19935;-80
2024/01/17 12:26:22;;;;;;;;;;;;;;;-1.61;100.00;98498.53;5060279;28;19928;-80
2024/01/17 12:28:50;;;;;;;;;;;;;;;-1.65;100.00;98498.25;5025163;28;19937;-81
2024/01/17 12:31:18;;;;;;;;;;;;;;;-1.55;100.00;98487.66;5047902;28;19940;-81
2024/01/17 12:33:48;;;;;;;;;;;;;;;-1.42;100.00;98477.63;5031689;28;19928;-80
2024/01/17 12:36:17;;;;;;;;;;;;;;;-1.53;100.00;98479.41;5042674;28;19928;-81
2024/01/17 12:38:45;;;;;;;;;;;;;;;-1.56;100.00;98477.22;5028168;28;19928;-81
2024/01/17 12:41:13;;;;;;;;;;;;;;;-1.63;100.00;98468.63;5024373;28;19924;-82
2024/01/17 12:43:41;;;;;;;;;;;;;;;-1.60;100.00;98463.63;5033729;28;20524;-82
2024/01/17 12:46:10;;;;;;;;;;;;;;;-1.43;100.00;98471.47;5055572;28;19947;-81
2024/01/17 12:48:51;;;;;;;;;;;;;;;-1.48;100.00;98463.41;5030280;28;19935;-81
2024/01/17 12:51:20;;;;;;;;;;;;;;;-1.41;100.00;98456.03;5027861;28;20288;-81
2024/01/17 12:53:54;;;;;;;;;;;;;;;-1.49;100.00;98461.84;5032990;28;19928;-80
2024/01/17 12:56:22;;;;;;;;;;;;;;;-1.48;100.00;98454.63;5061071;28;19929;-82
2024/01/17 12:58:55;;;;;;;;;;;;;;;-1.41;100.00;98457.88;5046697;28;19935;-81
2024/01/17 13:01:24;;;;;;;;;;;;;;;-1.44;100.00;98455.72;5033447;28;19929;-81
2024/01/17 13:03:59;;;;;;;;;;;;;;;-1.37;100.00;98454.47;5042706;28;21892;-81